Portada
METAR-TAF:

METAR-TAF

Aeroports :

Nairobi, Kenya

latitud: 01-19S, longitud: 036-49E, altitud: 1683 m

Observació

L'informe es va fer fa 38 minuts, a les 03:00 UTC
Vent calma
Temperatura 16°C
Humitat 94%
Pressió 1022 hPa
Visibilitat 10 km o més
Cel ennuvolat a una alçada de 1800 ft

METAR: HKNW 290300Z 00000KT 9999 BKN018 16/15 Q1022

Hora: 06:38 (03:38 UTC)

Pronòstic

L'informe es va fer fa 4 hores i 38 minuts, a les 23:00 UTC
Pronòstic vàlid del 29 a les 00 UTC al 29 a les 24 UTC
Vent 5 kt del Est
Visibilitat 10 km o més
Cel ennuvolat a una alçada de 1900 ft
Evolucionant progressivament
l' 29 a les 08 UTC al 29 a les 11 UTC
Vent 10 kt del Sud/Sud-Est
Cel ennuvolat a una alçada de 2400 ft
Evolucionant progressivament
l' 29 a les 20 UTC al 29 a les 23 UTC
Vent 5 kt del Est
Cel ennuvolat a una alçada de 1900 ft

TAF: HKNW 282300Z 2900/2924 09005KT 9999 BKN019 BECMG 2908/2911 16010KT BKN024 BECMG 2920/2923 08005KT BKN019

Observacions i pronòstics meteorològics de més de 4000 aeroports (METAR i TAF).

Les estacions disponibles són els punts grocs i vermells al mapa.

Posi el ratolí al punt desitjat per veure el nom de l'estació.

Feu clic per veure les observacions i els pronòstics meteorològics.

Per canviar el mapa: feu clic els botons verds amb una creu de color negre per apropar; al botó verd amb un guió per allunyar la imatge; o en les fletxes verdes per a mapes adjacents.


METAR-TAF: